Terminal Aerodrome Forecast
Issued by NWS

Home | Current Version | Previous Version | Graphics & Text | Print | Product List | Glossary On
Versions: 1 2 3 4 5 6 7 8 9 10 11 12 13 14 15 16
000
FTUS43 KBIS 230418 AAA
TAFDIK
TAF AMD
KDIK 230418Z 2304/2324 31020G30KT P6SM BKN020 OVC025
     FM231200 31017G26KT P6SM SCT020 BKN045
     FM231400 31020G29KT P6SM FEW025 SCT080=

USA.gov is the U.S. government's official web portal to all federal, state and local government web resources and services.